Time;durP1;ratioP1;P1;durP2;ratioP2;P2;SDS_P1;SDS_P2;PMS_P1;PMS_P2;Temp;Humidity;BMP_temperature;BMP_pressure;BME280_temperature;BME280_humidity;BME280_pressure;Samples;Min_cycle;Max_cycle;Signal;HPM_P1;HPM_P2
2021/05/06 00:02:31;;;;;;;5.60;2.30;;;7.90;99.90;;;;;;5017486;28;21022;-73
2021/05/06 00:08:56;;;;;;;4.13;1.50;;;7.60;99.90;;;;;;5057142;28;20504;-73
2021/05/06 00:30:37;;;;;;;3.20;2.20;;;8.00;99.90;;;;;;5037185;28;21225;-73
2021/05/06 00:33:22;;;;;;;3.17;2.00;;;8.00;99.90;;;;;;5063418;28;20976;-73
2021/05/06 00:36:07;;;;;;;3.20;1.73;;;8.00;99.90;;;;;;5055523;28;20466;-73
2021/05/06 00:38:55;;;;;;;2.80;1.60;;;8.20;99.90;;;;;;5058742;28;20490;-73
2021/05/06 00:41:55;;;;;;;3.47;1.93;;;8.10;99.90;;;;;;5062274;28;20488;-73
2021/05/06 00:57:00;;;;;;;2.97;1.63;;;8.50;99.90;;;;;;5058362;28;20505;-73
2021/05/06 01:02:58;;;;;;;5.13;1.90;;;8.40;99.90;;;;;;5054843;28;20451;-73
2021/05/06 01:05:46;;;;;;;4.23;2.00;;;8.30;99.90;;;;;;5057284;28;20462;-73
2021/05/06 01:08:34;;;;;;;2.53;1.70;;;8.20;99.90;;;;;;5059916;28;20451;-73
2021/05/06 01:11:26;;;;;;;5.10;2.30;;;8.30;99.90;;;;;;5067144;28;20525;-73
2021/05/06 01:14:11;;;;;;;5.63;1.80;;;8.30;99.90;;;;;;5058801;28;20417;-72
2021/05/06 01:16:56;;;;;;;4.33;1.90;;;8.40;99.90;;;;;;5058835;28;21152;-73
2021/05/06 01:19:41;;;;;;;6.90;2.40;;;8.40;99.90;;;;;;5059561;28;20526;-73
2021/05/06 01:22:27;;;;;;;4.00;2.20;;;8.40;99.90;;;;;;5059674;28;20455;-73
2021/05/06 01:25:13;;;;;;;4.93;1.90;;;8.40;99.90;;;;;;5061750;28;20825;-73
2021/05/06 01:28:02;;;;;;;4.13;2.50;;;8.40;99.90;;;;;;5057827;28;20506;-73
2021/05/06 01:30:51;;;;;;;3.13;1.97;;;8.50;99.90;;;;;;5056397;28;20494;-73
2021/05/06 01:33:39;;;;;;;2.87;1.87;;;8.40;99.90;;;;;;5052895;28;20536;-73
2021/05/06 01:36:28;;;;;;;3.93;2.37;;;8.40;99.90;;;;;;5063910;28;20478;-73
2021/05/06 01:42:16;;;;;;;3.63;2.23;;;8.40;99.90;;;;;;5058914;28;20446;-73
2021/05/06 01:48:12;;;;;;;7.30;2.40;;;8.40;99.90;;;;;;5058940;28;20820;-73
2021/05/06 01:51:22;;;;;;;4.90;2.93;;;8.40;99.90;;;;;;5057750;28;20557;-73
2021/05/06 01:57:45;;;;;;;5.80;2.77;;;8.20;99.90;;;;;;5039551;28;20501;-73
2021/05/06 02:00:34;;;;;;;6.80;2.70;;;8.10;99.90;;;;;;5059408;28;20813;-73
2021/05/06 02:03:19;;;;;;;5.83;2.73;;;8.10;99.90;;;;;;5057284;28;20561;-73
2021/05/06 02:06:04;;;;;;;4.13;2.97;;;8.20;99.90;;;;;;5051529;28;20471;-73
2021/05/06 02:08:49;;;;;;;4.47;2.77;;;8.10;99.90;;;;;;5059739;28;20478;-73
2021/05/06 02:11:34;;;;;;;5.70;2.87;;;8.10;99.90;;;;;;5061235;28;20472;-74
2021/05/06 02:14:20;;;;;;;6.27;2.73;;;8.10;99.90;;;;;;5058727;28;20504;-73
2021/05/06 02:17:07;;;;;;;4.90;2.33;;;8.00;99.90;;;;;;5056546;28;20495;-74
2021/05/06 02:19:52;;;;;;;7.03;2.67;;;7.90;99.90;;;;;;5057105;28;20422;-73
2021/05/06 02:22:37;;;;;;;4.07;2.33;;;7.90;99.90;;;;;;5060065;28;20466;-73
2021/05/06 02:25:22;;;;;;;6.33;2.57;;;7.80;99.90;;;;;;5060424;28;20466;-73
2021/05/06 02:28:07;;;;;;;5.53;2.77;;;7.80;99.90;;;;;;5055357;28;20470;-75
2021/05/06 02:30:54;;;;;;;4.37;2.43;;;7.80;99.90;;;;;;5056046;28;20936;-73
2021/05/06 02:33:38;;;;;;;5.07;2.40;;;7.80;99.90;;;;;;5058048;28;20997;-73
2021/05/06 02:36:24;;;;;;;10.83;2.30;;;7.90;99.90;;;;;;5055615;28;20522;-73
2021/05/06 02:39:09;;;;;;;8.88;2.78;;;7.90;99.90;;;;;;5057545;28;20506;-73
2021/05/06 02:41:54;;;;;;;3.63;2.50;;;7.80;99.90;;;;;;5055351;28;20199;-73
2021/05/06 02:44:40;;;;;;;5.97;3.03;;;7.70;99.90;;;;;;5052655;28;20454;-73
2021/05/06 02:47:27;;;;;;;4.97;2.57;;;7.70;99.90;;;;;;5060543;28;20449;-73
2021/05/06 02:50:14;;;;;;;5.40;2.70;;;7.60;99.90;;;;;;5057952;28;20478;-73
2021/05/06 02:53:02;;;;;;;6.23;2.73;;;7.60;99.90;;;;;;5055066;28;20879;-73
2021/05/06 02:55:51;;;;;;;3.43;2.30;;;7.60;99.90;;;;;;5056823;28;20469;-73
2021/05/06 02:58:55;;;;;;;7.53;2.67;;;7.50;99.90;;;;;;5060037;28;20863;-73
2021/05/06 03:04:46;;;;;;;4.33;2.40;;;7.40;99.90;;;;;;5056805;28;20442;-73
2021/05/06 03:07:32;;;;;;;6.47;3.03;;;7.20;99.90;;;;;;5056282;28;20801;-73
2021/05/06 03:10:34;;;;;;;5.40;2.43;;;7.30;99.90;;;;;;5053354;28;20471;-72
2021/05/06 03:22:45;;;;;;;6.90;2.80;;;7.20;99.90;;;;;;5058894;28;21176;-73
2021/05/06 03:25:31;;;;;;;5.10;2.40;;;7.10;99.90;;;;;;5058392;28;20450;-73
2021/05/06 03:28:23;;;;;;;6.10;2.83;;;7.20;99.90;;;;;;5051876;28;20506;-73
2021/05/06 03:31:22;;;;;;;4.77;2.77;;;7.20;99.90;;;;;;5056596;28;20215;-73
2021/05/06 03:43:32;;;;;;;5.65;2.60;;;7.40;99.90;;;;;;5059634;28;20207;-73
2021/05/06 04:17:02;;;;;;;9.50;3.33;;;8.00;99.90;;;;;;5064198;28;20476;-73
2021/05/06 04:38:14;;;;;;;7.72;2.70;;;7.90;99.90;;;;;;5019575;28;20483;-73
2021/05/06 04:41:16;;;;;;;8.43;2.30;;;8.00;99.90;;;;;;5017617;28;20237;-73
2021/05/06 04:44:42;;;;;;;5.33;2.80;;;8.10;99.90;;;;;;5056409;28;20447;-73
2021/05/06 04:56:50;;;;;;;9.77;3.20;;;8.10;99.90;;;;;;5067888;28;20482;-73
2021/05/06 05:05:53;;;;;;;6.30;2.90;;;8.20;99.90;;;;;;5054019;28;20221;-73
2021/05/06 05:08:43;;;;;;;8.60;3.30;;;8.20;99.90;;;;;;5059832;28;20451;-73
2021/05/06 05:14:49;;;;;;;9.50;2.73;;;8.30;99.90;;;;;;5060125;28;20998;-73
2021/05/06 05:17:44;;;;;;;5.10;3.07;;;8.20;99.90;;;;;;5055859;28;20491;-72
2021/05/06 05:20:39;;;;;;;7.70;2.80;;;8.00;99.90;;;;;;5055029;28;20466;-73
2021/05/06 05:23:33;;;;;;;4.45;2.33;;;7.90;99.90;;;;;;5061404;28;20200;-74
2021/05/06 05:26:18;;;;;;;13.63;3.75;;;7.80;99.90;;;;;;5060148;28;20204;-73
2021/05/06 05:29:03;;;;;;;8.40;3.00;;;7.90;99.90;;;;;;5054632;28;20231;-72
2021/05/06 05:31:50;;;;;;;6.00;3.30;;;7.90;99.90;;;;;;5058544;28;20540;-74
2021/05/06 05:34:38;;;;;;;8.10;2.90;;;7.90;99.90;;;;;;5054619;28;20454;-73
2021/05/06 05:37:26;;;;;;;3.92;2.80;;;7.90;99.90;;;;;;5064304;28;20282;-73
2021/05/06 05:40:20;;;;;;;6.57;3.10;;;7.90;99.90;;;;;;5059694;28;20601;-73
2021/05/06 05:43:13;;;;;;;5.13;3.23;;;8.00;99.90;;;;;;5055627;28;20521;-73
2021/05/06 05:55:14;;;;;;;6.03;2.73;;;7.90;99.90;;;;;;5061259;28;20521;-73
2021/05/06 05:57:59;;;;;;;13.43;2.97;;;7.90;99.90;;;;;;5057846;28;20467;-73
2021/05/06 06:00:44;;;;;;;8.80;3.17;;;7.80;99.90;;;;;;5056865;28;20319;-74
2021/05/06 06:03:29;;;;;;;9.30;3.65;;;7.90;99.90;;;;;;5055605;28;20205;-74
2021/05/06 06:06:15;;;;;;;3.70;2.57;;;7.90;99.90;;;;;;5062416;28;20219;-73
2021/05/06 06:09:00;;;;;;;15.07;6.50;;;8.00;99.90;;;;;;5055808;28;21015;-74
2021/05/06 06:11:45;;;;;;;9.47;3.80;;;8.10;99.90;;;;;;5059232;28;20513;-73
2021/05/06 06:14:37;;;;;;;17.57;3.43;;;8.20;99.90;;;;;;5054398;28;20458;-73
2021/05/06 06:17:23;;;;;;;8.23;3.33;;;8.30;99.90;;;;;;5062532;28;20521;-73
2021/05/06 06:20:09;;;;;;;5.37;3.30;;;8.40;99.90;;;;;;5055446;28;20435;-73
2021/05/06 06:22:55;;;;;;;10.40;3.60;;;8.40;99.90;;;;;;5053809;28;20459;-73
2021/05/06 06:25:40;;;;;;;64.00;41.70;;;8.40;99.90;;;;;;5051991;28;20451;-72
2021/05/06 06:28:26;;;;;;;26.53;16.43;;;8.30;99.90;;;;;;5055913;28;21188;-73
2021/05/06 06:31:15;;;;;;;25.13;14.63;;;8.20;99.90;;;;;;5060115;28;20514;-72
2021/05/06 06:34:01;;;;;;;17.03;5.40;;;8.20;99.90;;;;;;5053797;28;20454;-73
2021/05/06 06:36:46;;;;;;;16.53;5.67;;;8.30;99.90;;;;;;5053257;28;20537;-72
2021/05/06 06:39:33;;;;;;;37.63;23.67;;;8.30;99.90;;;;;;5055466;28;20495;-72
2021/05/06 06:42:18;;;;;;;11.63;6.60;;;8.30;99.90;;;;;;5062025;28;20438;-71
2021/05/06 06:45:04;;;;;;;62.67;41.40;;;8.30;99.90;;;;;;5058903;28;20455;-72
2021/05/06 06:47:52;;;;;;;19.30;10.00;;;8.40;99.90;;;;;;5062764;28;20999;-73
2021/05/06 06:50:37;;;;;;;10.10;4.73;;;8.30;99.90;;;;;;5063754;28;20486;-72
2021/05/06 06:53:22;;;;;;;6.10;3.20;;;8.40;99.90;;;;;;5056747;28;20450;-73
2021/05/06 06:56:08;;;;;;;12.00;3.73;;;8.40;99.90;;;;;;5055621;28;20521;-73
2021/05/06 06:58:53;;;;;;;24.90;5.60;;;8.40;99.90;;;;;;5063715;28;20417;-73
2021/05/06 07:01:39;;;;;;;49.43;7.73;;;8.40;99.90;;;;;;5054679;28;20866;-73
2021/05/06 07:04:24;;;;;;;99.57;12.70;;;8.50;99.90;;;;;;5055047;28;20454;-74
2021/05/06 07:07:09;;;;;;;49.00;7.40;;;8.40;99.90;;;;;;5062223;28;20940;-73
2021/05/06 07:09:54;;;;;;;12.10;3.60;;;8.50;99.90;;;;;;5048993;28;20429;-73
2021/05/06 07:12:40;;;;;;;15.03;4.10;;;8.60;99.90;;;;;;5052787;28;20450;-74
2021/05/06 07:15:26;;;;;;;42.50;5.73;;;8.60;99.90;;;;;;5065802;28;21237;-73
2021/05/06 07:18:11;;;;;;;12.87;4.03;;;8.50;99.90;;;;;;5055097;28;20463;-73
2021/05/06 07:20:56;;;;;;;20.40;3.90;;;8.60;99.90;;;;;;5054763;28;20450;-74
2021/05/06 07:23:41;;;;;;;20.73;4.23;;;8.50;99.90;;;;;;5057443;28;20594;-74
2021/05/06 07:26:27;;;;;;;13.93;4.20;;;8.50;99.90;;;;;;5052658;28;20471;-73
2021/05/06 07:29:15;;;;;;;10.40;4.73;;;8.50;99.90;;;;;;5057758;28;20478;-73
2021/05/06 07:32:01;;;;;;;9.03;3.97;;;8.40;99.90;;;;;;5057812;28;20471;-73
2021/05/06 07:34:46;;;;;;;12.27;4.50;;;8.40;99.90;;;;;;5054869;28;20454;-74
2021/05/06 07:37:32;;;;;;;8.87;4.83;;;8.30;99.90;;;;;;5060741;28;21000;-73
2021/05/06 07:40:17;;;;;;;8.17;4.47;;;8.10;99.90;;;;;;5059941;28;20821;-73
2021/05/06 07:43:03;;;;;;;8.80;3.90;;;7.80;99.90;;;;;;5064994;28;20750;-72
2021/05/06 07:45:49;;;;;;;9.70;3.73;;;7.90;99.90;;;;;;5059691;28;20466;-73
2021/05/06 07:48:35;;;;;;;11.33;5.00;;;7.70;99.90;;;;;;5061227;28;20524;-73
2021/05/06 07:51:20;;;;;;;10.97;4.83;;;7.60;99.90;;;;;;5060524;28;20483;-71
2021/05/06 07:54:06;;;;;;;12.83;5.10;;;7.70;99.90;;;;;;5061199;28;20468;-73
2021/05/06 07:56:52;;;;;;;47.53;27.27;;;7.80;99.90;;;;;;5053561;28;20571;-74
2021/05/06 07:59:37;;;;;;;39.07;22.13;;;8.00;99.90;;;;;;5051136;28;20821;-74
2021/05/06 08:02:24;;;;;;;24.57;11.50;;;8.20;99.90;;;;;;5056827;28;20450;-74
2021/05/06 08:05:10;;;;;;;9.57;5.20;;;8.40;99.90;;;;;;5052607;28;20976;-74
2021/05/06 08:07:56;;;;;;;15.13;4.73;;;8.50;99.90;;;;;;5060563;28;21662;-74
2021/05/06 08:10:42;;;;;;;11.20;4.63;;;8.50;99.90;;;;;;5052890;28;20483;-73
2021/05/06 08:13:28;;;;;;;10.80;5.00;;;8.50;99.90;;;;;;5058403;28;21059;-75
2021/05/06 08:16:13;;;;;;;9.80;5.07;;;8.50;99.90;;;;;;5059001;28;20451;-74
2021/05/06 08:18:59;;;;;;;7.10;4.80;;;8.60;99.90;;;;;;5058354;28;20510;-73
2021/05/06 08:21:46;;;;;;;17.87;6.10;;;8.70;99.90;;;;;;5053008;28;20446;-74
2021/05/06 08:24:31;;;;;;;7.77;5.20;;;8.70;99.90;;;;;;5062068;28;20488;-74
2021/05/06 08:27:15;;;;;;;12.87;4.87;;;8.90;99.90;;;;;;5053737;28;20470;-74
2021/05/06 08:30:01;;;;;;;6.50;5.57;;;8.90;99.90;;;;;;5058414;28;21119;-74
2021/05/06 08:32:46;;;;;;;10.93;5.90;;;8.90;99.90;;;;;;5056793;28;20499;-74
2021/05/06 08:35:33;;;;;;;16.93;6.43;;;8.90;99.90;;;;;;5059582;28;20964;-74
2021/05/06 08:38:18;;;;;;;9.87;5.43;;;8.80;99.90;;;;;;5057173;28;20483;-74
2021/05/06 08:41:04;;;;;;;9.07;5.40;;;8.90;99.90;;;;;;5058321;28;20438;-74
2021/05/06 08:43:54;;;;;;;12.97;4.90;;;9.10;99.90;;;;;;5060815;28;20450;-75
2021/05/06 08:46:47;;;;;;;7.73;4.77;;;9.10;99.90;;;;;;5059230;28;20470;-74
2021/05/06 08:49:34;;;;;;;6.80;4.30;;;9.20;99.90;;;;;;5061737;28;20496;-74
2021/05/06 08:52:20;;;;;;;7.80;4.90;;;9.20;99.90;;;;;;5056245;28;21320;-75
2021/05/06 08:55:06;;;;;;;10.10;4.50;;;9.30;99.90;;;;;;5058827;28;20429;-74
2021/05/06 08:57:52;;;;;;;19.03;4.63;;;9.30;99.90;;;;;;5061060;28;20492;-74
2021/05/06 09:00:37;;;;;;;12.87;5.10;;;9.30;99.90;;;;;;5058589;28;20451;-74
2021/05/06 09:03:22;;;;;;;24.57;4.33;;;9.30;99.90;;;;;;5057911;28;20605;-74
2021/05/06 09:06:18;;;;;;;38.47;17.43;;;9.40;99.90;;;;;;5062221;28;20538;-74
2021/05/06 09:09:04;;;;;;;40.87;26.00;;;9.50;99.90;;;;;;5054537;28;20990;-74
2021/05/06 09:11:54;;;;;;;12.93;7.90;;;9.60;99.90;;;;;;5053467;28;20833;-74
2021/05/06 09:14:40;;;;;;;15.33;5.80;;;9.40;99.90;;;;;;5054866;28;20953;-74
2021/05/06 09:17:26;;;;;;;8.33;3.37;;;9.30;99.90;;;;;;5058592;28;20614;-75
2021/05/06 09:20:14;;;;;;;7.37;4.47;;;9.30;99.90;;;;;;5062816;28;20441;-74
2021/05/06 09:22:59;;;;;;;7.23;4.10;;;9.20;99.90;;;;;;5048839;28;21158;-73
2021/05/06 09:25:45;;;;;;;19.87;5.00;;;9.10;99.90;;;;;;5059203;28;20476;-74
2021/05/06 09:28:32;;;;;;;7.53;4.93;;;9.00;99.90;;;;;;5053166;28;20475;-74
2021/05/06 09:31:23;;;;;;;6.33;3.90;;;9.10;99.90;;;;;;5055544;28;20975;-74
2021/05/06 09:34:11;;;;;;;8.30;4.00;;;9.10;99.90;;;;;;5053827;28;20458;-74
2021/05/06 09:37:01;;;;;;;9.43;4.10;;;9.00;99.90;;;;;;5058183;28;20512;-74
2021/05/06 09:39:47;;;;;;;11.97;4.83;;;9.10;99.90;;;;;;5062451;28;20486;-74
2021/05/06 09:42:40;;;;;;;10.47;5.07;;;8.90;99.90;;;;;;5056114;28;20447;-75
2021/05/06 09:45:27;;;;;;;11.90;4.33;;;8.80;99.90;;;;;;5056638;28;20933;-74
2021/05/06 09:48:15;;;;;;;5.83;4.20;;;8.80;99.90;;;;;;5059715;28;20519;-75
2021/05/06 09:51:03;;;;;;;9.80;5.03;;;8.70;99.90;;;;;;5062152;28;20456;-74
2021/05/06 09:53:55;;;;;;;6.60;4.93;;;8.70;99.90;;;;;;5057352;28;20517;-74
2021/05/06 09:56:42;;;;;;;7.60;4.63;;;8.80;99.90;;;;;;5059009;28;20520;-74
2021/05/06 09:59:30;;;;;;;8.30;5.23;;;8.90;99.90;;;;;;5057374;28;20488;-73
2021/05/06 10:02:17;;;;;;;11.03;5.47;;;9.10;99.90;;;;;;5059521;28;20520;-74
2021/05/06 10:05:07;;;;;;;9.07;5.83;;;9.20;99.90;;;;;;5052932;28;20521;-74
2021/05/06 10:07:53;;;;;;;9.63;5.77;;;9.30;99.90;;;;;;5058713;28;20532;-74
2021/05/06 10:10:41;;;;;;;14.67;6.07;;;9.40;99.90;;;;;;5053999;28;20486;-74
2021/05/06 10:13:26;;;;;;;15.00;6.50;;;9.60;99.90;;;;;;5054967;28;20610;-73
2021/05/06 10:16:14;;;;;;;10.13;6.80;;;9.80;99.90;;;;;;5057306;28;20452;-75
2021/05/06 10:19:00;;;;;;;6.93;5.10;;;10.00;99.90;;;;;;5056402;28;20447;-74
2021/05/06 10:21:46;;;;;;;9.90;6.73;;;9.80;99.90;;;;;;5048677;28;20494;-73
2021/05/06 10:24:31;;;;;;;8.50;6.70;;;9.90;99.90;;;;;;5060504;28;20890;-74
2021/05/06 10:27:18;;;;;;;7.37;6.40;;;10.10;99.90;;;;;;5057986;28;20493;-74
2021/05/06 10:30:06;;;;;;;11.37;6.53;;;10.00;99.90;;;;;;5048885;28;20543;-73
2021/05/06 10:32:53;;;;;;;14.20;7.60;;;10.10;99.90;;;;;;5050191;28;20450;-74
2021/05/06 10:35:39;;;;;;;12.37;7.37;;;10.30;99.90;;;;;;5053757;28;20536;-74
2021/05/06 10:38:31;;;;;;;20.50;13.50;;;10.40;99.90;;;;;;5052536;28;20549;-74
2021/05/06 10:41:31;;;;;;;11.80;6.43;;;10.50;99.90;;;;;;5051106;28;20501;-73
2021/05/06 10:44:16;;;;;;;12.97;5.63;;;10.60;99.90;;;;;;5055061;28;20988;-73
2021/05/06 10:47:01;;;;;;;9.00;6.40;;;10.70;99.90;;;;;;5058070;28;21319;-74
2021/05/06 10:50:08;;;;;;;11.40;6.00;;;10.80;99.90;;;;;;5053627;28;21018;-74
2021/05/06 10:52:55;;;;;;;8.93;5.13;;;11.00;99.90;;;;;;5053746;28;20458;-73
2021/05/06 10:55:46;;;;;;;8.20;5.00;;;11.10;99.90;;;;;;5051229;28;21363;-71
2021/05/06 10:58:36;;;;;;;8.00;5.70;;;11.20;99.90;;;;;;5053984;28;20454;-72
2021/05/06 11:01:23;;;;;;;6.77;4.40;;;11.40;99.90;;;;;;5058529;28;22499;-74
2021/05/06 11:04:10;;;;;;;7.27;4.90;;;11.40;99.90;;;;;;5053523;28;20452;-72
2021/05/06 11:07:10;;;;;;;5.30;4.50;;;11.20;99.90;;;;;;5049763;28;20848;-75
2021/05/06 11:10:01;;;;;;;9.57;5.60;;;11.30;99.90;;;;;;5052738;28;20463;-75
2021/05/06 11:12:56;;;;;;;16.47;6.10;;;11.50;99.90;;;;;;5053872;28;20471;-74
2021/05/06 11:15:42;;;;;;;7.50;5.63;;;11.50;99.90;;;;;;5057802;28;20444;-74
2021/05/06 11:18:42;;;;;;;8.93;5.50;;;11.50;99.90;;;;;;5054016;28;20466;-74
2021/05/06 11:21:43;;;;;;;9.37;5.37;;;11.50;99.90;;;;;;5056019;28;20458;-75
2021/05/06 11:24:29;;;;;;;6.50;5.23;;;11.40;99.90;;;;;;5058156;28;20473;-75
2021/05/06 11:27:16;;;;;;;7.53;5.23;;;11.50;99.90;;;;;;5049543;28;20517;-73
2021/05/06 11:30:32;;;;;;;11.43;4.87;;;11.30;99.90;;;;;;5054479;28;20542;-73
2021/05/06 11:33:28;;;;;;;9.03;5.47;;;11.30;99.90;;;;;;5055838;28;20583;-73
2021/05/06 11:36:19;;;;;;;7.10;5.10;;;11.30;99.90;;;;;;5058512;28;20962;-73
2021/05/06 11:39:04;;;;;;;17.60;5.30;;;11.30;99.90;;;;;;5058512;28;20467;-75
2021/05/06 11:41:50;;;;;;;10.90;5.80;;;11.30;99.90;;;;;;5057260;28;20425;-75
2021/05/06 11:44:35;;;;;;;17.23;9.83;;;11.20;99.90;;;;;;5059799;28;20411;-75
2021/05/06 11:47:27;;;;;;;9.13;5.70;;;11.10;99.90;;;;;;5050074;28;20794;-75
2021/05/06 11:50:37;;;;;;;19.40;6.50;;;11.20;99.90;;;;;;5050789;28;20443;-75
2021/05/06 11:53:22;;;;;;;16.90;7.97;;;11.10;99.90;;;;;;5052036;28;20461;-75
2021/05/06 11:56:12;;;;;;;8.80;5.03;;;11.20;99.90;;;;;;5054946;28;20432;-75
2021/05/06 12:38:45;;;;;;;11.47;4.40;;;10.30;99.90;;;;;;5094508;27;20516;-75
2021/05/06 12:41:30;;;;;;;16.50;4.67;;;10.90;99.90;;;;;;5075545;28;20929;-73
2021/05/06 12:44:43;;;;;;;13.10;4.47;;;11.00;99.90;;;;;;5081286;28;20436;-73
2021/05/06 12:47:29;;;;;;;13.83;5.20;;;10.80;99.90;;;;;;5076537;28;20470;-73
2021/05/06 12:50:18;;;;;;;12.30;4.80;;;10.80;99.90;;;;;;5079415;28;20441;-73
2021/05/06 12:53:08;;;;;;;9.20;4.60;;;10.60;99.90;;;;;;5074361;28;20432;-73
2021/05/06 12:55:53;;;;;;;23.67;8.70;;;10.40;99.90;;;;;;5073584;28;20781;-75
2021/05/06 12:58:38;;;;;;;13.30;4.70;;;10.40;99.90;;;;;;5075600;28;20469;-75
2021/05/06 13:01:32;;;;;;;10.07;4.80;;;10.50;99.90;;;;;;5076101;28;20423;-74
2021/05/06 13:04:17;;;;;;;11.00;5.87;;;10.30;99.90;;;;;;5078015;28;20496;-75
2021/05/06 13:07:02;;;;;;;8.70;5.00;;;10.20;99.90;;;;;;5081043;28;20412;-75
2021/05/06 13:09:48;;;;;;;8.97;6.03;;;10.20;99.90;;;;;;5079450;28;20465;-75
2021/05/06 13:12:43;;;;;;;9.07;6.23;;;10.20;99.90;;;;;;5082253;28;20471;-75
2021/05/06 13:15:28;;;;;;;20.80;12.10;;;10.20;99.90;;;;;;5085203;28;21001;-74
2021/05/06 13:18:14;;;;;;;17.43;7.40;;;10.30;99.90;;;;;;5079995;28;20998;-74
2021/05/06 13:20:59;;;;;;;8.60;5.50;;;10.30;99.90;;;;;;5090054;28;20417;-75
2021/05/06 13:23:44;;;;;;;18.73;6.83;;;10.20;99.90;;;;;;5078067;28;20512;-73
2021/05/06 13:26:31;;;;;;;8.13;4.93;;;10.10;99.90;;;;;;5077942;28;20421;-75
2021/05/06 13:29:19;;;;;;;7.37;5.60;;;9.90;99.90;;;;;;5081351;28;20447;-74
2021/05/06 13:32:05;;;;;;;9.77;6.23;;;9.90;99.90;;;;;;5081507;28;20461;-74
2021/05/06 13:34:54;;;;;;;11.47;5.83;;;9.90;99.90;;;;;;5080112;28;20529;-74
2021/05/06 13:37:42;;;;;;;18.10;6.10;;;9.90;99.90;;;;;;5076675;28;20869;-74
2021/05/06 13:40:27;;;;;;;13.70;5.27;;;9.90;99.90;;;;;;5064873;28;20453;-74
2021/05/06 13:43:13;;;;;;;15.33;6.47;;;9.80;99.90;;;;;;5064752;28;20534;-75
2021/05/06 13:45:59;;;;;;;13.30;6.03;;;9.80;99.90;;;;;;5064923;28;20527;-73
2021/05/06 13:48:44;;;;;;;12.17;6.50;;;9.90;99.90;;;;;;5065320;28;20960;-75
2021/05/06 13:51:30;;;;;;;13.13;6.90;;;10.00;99.90;;;;;;5064790;28;20421;-74
2021/05/06 13:54:15;;;;;;;11.83;7.60;;;10.10;99.90;;;;;;5064998;28;20458;-75
2021/05/06 13:57:00;;;;;;;11.10;8.97;;;10.20;99.90;;;;;;5067940;28;20486;-74
2021/05/06 13:59:45;;;;;;;36.40;19.63;;;10.20;99.90;;;;;;5070839;28;20550;-73
2021/05/06 14:02:31;;;;;;;10.83;7.60;;;10.20;99.90;;;;;;5070836;28;20452;-73
2021/05/06 14:05:16;;;;;;;6.50;5.77;;;10.00;99.90;;;;;;5070053;28;20441;-73
2021/05/06 14:08:01;;;;;;;10.60;8.70;;;10.00;99.90;;;;;;5069243;28;20546;-71
2021/05/06 14:10:47;;;;;;;16.30;10.10;;;10.10;99.90;;;;;;5069700;28;20801;-74
2021/05/06 14:13:33;;;;;;;11.30;4.90;;;10.30;99.90;;;;;;5067901;28;20506;-75
2021/05/06 14:16:18;;;;;;;5.70;4.60;;;10.30;99.90;;;;;;5066420;28;20425;-74
2021/05/06 14:19:06;;;;;;;12.27;5.97;;;10.10;99.90;;;;;;5063963;28;20459;-73
2021/05/06 14:21:52;;;;;;;7.87;4.13;;;10.10;99.90;;;;;;5070721;28;20440;-72
2021/05/06 14:24:38;;;;;;;7.57;3.80;;;9.90;99.90;;;;;;5063999;28;20454;-74
2021/05/06 14:27:23;;;;;;;7.67;4.27;;;9.90;99.90;;;;;;5063415;28;20489;-75
2021/05/06 14:30:10;;;;;;;5.93;4.20;;;9.90;99.90;;;;;;5067587;28;20446;-74
2021/05/06 14:32:55;;;;;;;6.83;4.07;;;9.80;99.90;;;;;;5067859;28;20947;-74
2021/05/06 14:35:41;;;;;;;6.73;4.10;;;9.90;99.90;;;;;;5065894;28;20458;-75
2021/05/06 14:38:27;;;;;;;5.27;3.60;;;9.90;99.90;;;;;;5065552;28;20536;-75
2021/05/06 14:41:12;;;;;;;7.90;3.90;;;10.10;99.90;;;;;;5065884;28;20425;-76
2021/05/06 14:43:57;;;;;;;6.10;3.30;;;10.10;99.90;;;;;;5071709;28;20462;-75
2021/05/06 14:46:42;;;;;;;5.87;2.87;;;10.10;99.90;;;;;;5068910;28;20425;-74
2021/05/06 14:49:27;;;;;;;4.07;2.37;;;9.80;99.90;;;;;;5072678;28;20467;-75
2021/05/06 14:52:13;;;;;;;12.00;7.73;;;9.70;99.90;;;;;;5069905;28;20491;-75
2021/05/06 14:54:59;;;;;;;3.17;2.67;;;9.70;99.90;;;;;;5068333;28;20926;-76
2021/05/06 14:57:44;;;;;;;3.23;2.80;;;9.80;99.90;;;;;;5074575;28;20516;-76
2021/05/06 15:00:29;;;;;;;4.20;2.40;;;9.80;99.90;;;;;;5073982;28;20423;-75
2021/05/06 15:03:14;;;;;;;4.80;2.80;;;9.80;99.90;;;;;;5070705;28;20425;-76
2021/05/06 15:06:00;;;;;;;3.73;2.20;;;9.90;99.90;;;;;;5072344;28;20791;-75
2021/05/06 15:08:47;;;;;;;2.93;2.17;;;9.90;99.90;;;;;;5071906;28;20467;-76
2021/05/06 15:11:32;;;;;;;6.33;3.07;;;9.90;99.90;;;;;;5059349;28;20489;-75
2021/05/06 15:14:17;;;;;;;3.10;2.43;;;10.00;99.90;;;;;;5061417;28;20501;-76
2021/05/06 15:17:02;;;;;;;14.70;2.93;;;10.00;99.90;;;;;;5061493;28;20478;-76
2021/05/06 15:19:49;;;;;;;3.70;2.43;;;10.10;99.90;;;;;;5065257;28;20579;-75
2021/05/06 15:22:35;;;;;;;3.40;2.20;;;10.10;99.90;;;;;;5067937;28;21187;-76
2021/05/06 15:25:21;;;;;;;8.13;2.30;;;10.20;99.90;;;;;;5061848;28;20432;-76
2021/05/06 15:28:06;;;;;;;3.17;2.37;;;10.20;99.90;;;;;;5061406;28;20961;-75
2021/05/06 15:30:54;;;;;;;4.30;2.20;;;10.20;99.90;;;;;;5064410;28;20480;-75
2021/05/06 15:33:42;;;;;;;3.23;2.00;;;10.20;99.90;;;;;;5061660;28;21137;-75
2021/05/06 15:36:29;;;;;;;3.23;1.90;;;10.20;99.90;;;;;;5069344;28;20480;-76
2021/05/06 15:39:14;;;;;;;3.80;2.10;;;10.20;99.90;;;;;;5064635;28;20440;-76
2021/05/06 15:42:00;;;;;;;3.27;1.93;;;10.10;99.90;;;;;;5064586;28;20421;-76
2021/05/06 15:44:45;;;;;;;3.90;3.00;;;10.20;99.90;;;;;;5068477;28;21255;-75
2021/05/06 15:47:30;;;;;;;2.33;1.70;;;10.20;99.90;;;;;;5065549;28;20795;-76
2021/05/06 15:50:16;;;;;;;4.80;1.70;;;10.20;99.90;;;;;;5064088;28;20482;-76
2021/05/06 15:53:01;;;;;;;2.70;1.60;;;10.10;99.90;;;;;;5068599;28;20424;-76
2021/05/06 15:55:46;;;;;;;2.80;1.83;;;10.00;99.90;;;;;;5066558;28;21012;-76
2021/05/06 15:58:35;;;;;;;2.70;1.73;;;10.10;99.90;;;;;;5062976;28;20477;-75
2021/05/06 16:01:21;;;;;;;3.73;1.57;;;10.00;99.90;;;;;;5060379;28;21035;-76
2021/05/06 16:04:09;;;;;;;2.30;1.50;;;10.00;99.90;;;;;;5062168;28;20508;-76
2021/05/06 16:06:54;;;;;;;2.40;1.80;;;10.00;99.90;;;;;;5069204;28;20533;-76
2021/05/06 16:09:39;;;;;;;2.00;1.43;;;9.90;99.90;;;;;;5069483;28;20440;-76
2021/05/06 16:12:24;;;;;;;3.30;1.70;;;10.00;99.90;;;;;;5067917;28;20462;-76
2021/05/06 16:15:11;;;;;;;3.63;2.20;;;10.00;99.90;;;;;;5062063;28;20450;-76
2021/05/06 16:17:56;;;;;;;3.50;2.00;;;10.10;99.90;;;;;;5061340;28;20485;-76
2021/05/06 16:20:42;;;;;;;5.30;2.27;;;10.10;99.90;;;;;;5059654;28;20493;-76
2021/05/06 16:23:26;;;;;;;4.47;2.00;;;10.10;99.90;;;;;;5058731;28;20443;-76
2021/05/06 16:26:12;;;;;;;3.10;1.90;;;10.20;99.90;;;;;;5062569;28;20429;-76
2021/05/06 16:28:57;;;;;;;3.83;2.13;;;10.20;99.90;;;;;;5060888;28;20449;-76
2021/05/06 16:31:43;;;;;;;3.50;2.20;;;10.20;99.90;;;;;;5061920;28;20451;-74
2021/05/06 16:34:31;;;;;;;6.17;2.70;;;10.20;99.90;;;;;;5062320;28;20463;-72
2021/05/06 16:37:24;;;;;;;3.77;2.60;;;10.10;99.90;;;;;;5063167;28;20524;-72
2021/05/06 16:40:15;;;;;;;3.90;2.60;;;9.90;99.90;;;;;;5063057;28;20501;-72
2021/05/06 16:43:26;;;;;;;3.43;2.63;;;10.00;99.90;;;;;;5059035;28;20432;-72
2021/05/06 16:46:15;;;;;;;8.00;2.17;;;10.00;99.90;;;;;;5058913;28;20461;-73
2021/05/06 16:49:00;;;;;;;2.93;2.00;;;10.00;99.90;;;;;;5063019;28;20487;-72
2021/05/06 16:51:45;;;;;;;3.10;1.93;;;9.90;99.90;;;;;;5069433;28;20547;-72
2021/05/06 16:54:31;;;;;;;3.43;2.07;;;9.80;99.90;;;;;;5067376;28;20597;-73
2021/05/06 16:57:15;;;;;;;3.23;2.57;;;9.60;99.90;;;;;;5064041;28;20525;-73
2021/05/06 17:00:02;;;;;;;3.00;2.20;;;9.70;99.90;;;;;;5063592;28;20456;-73
2021/05/06 17:02:49;;;;;;;2.63;2.20;;;9.70;99.90;;;;;;5060948;28;20514;-73
2021/05/06 17:05:35;;;;;;;5.73;2.10;;;9.70;99.90;;;;;;5061507;28;20572;-73
2021/05/06 17:08:20;;;;;;;3.97;2.30;;;9.90;99.90;;;;;;5060154;28;20550;-73
2021/05/06 17:11:05;;;;;;;13.57;2.50;;;9.80;99.90;;;;;;5058373;28;20433;-73
2021/05/06 17:13:51;;;;;;;3.83;2.33;;;9.80;99.90;;;;;;5061936;28;20464;-72
2021/05/06 17:16:36;;;;;;;3.10;2.00;;;9.70;99.90;;;;;;5063485;28;20468;-73
2021/05/06 17:19:21;;;;;;;3.40;2.43;;;9.80;99.90;;;;;;5065019;28;20583;-74
2021/05/06 17:22:07;;;;;;;3.40;2.30;;;9.60;99.90;;;;;;5064972;28;20462;-74
2021/05/06 17:24:52;;;;;;;4.00;2.30;;;9.70;99.90;;;;;;5065196;28;21001;-75
2021/05/06 17:27:38;;;;;;;2.50;2.10;;;9.70;99.90;;;;;;5060559;28;20489;-74
2021/05/06 17:30:23;;;;;;;3.47;2.30;;;9.70;99.90;;;;;;5061246;28;20460;-74
2021/05/06 17:33:08;;;;;;;3.73;2.00;;;9.70;99.90;;;;;;5065777;28;20551;-74
2021/05/06 17:35:53;;;;;;;5.33;2.30;;;9.60;99.90;;;;;;5067713;28;20525;-74
2021/05/06 17:38:39;;;;;;;3.20;2.40;;;9.70;99.90;;;;;;5061498;28;20705;-74
2021/05/06 17:41:25;;;;;;;3.33;2.40;;;9.70;99.90;;;;;;5064985;28;20542;-74
2021/05/06 17:44:10;;;;;;;4.30;2.10;;;9.70;99.90;;;;;;5065182;28;20445;-74